Time;durP1;ratioP1;P1;durP2;ratioP2;P2;SDS_P1;SDS_P2;PMS_P1;PMS_P2;Temp;Humidity;BMP_temperature;BMP_pressure;BME280_temperature;BME280_humidity;BME280_pressure;Samples;Min_cycle;Max_cycle;Signal;HPM_P1;HPM_P2
2023/09/12 00:00:46;;;;;;;;;;;;;;;24.12;49.22;101210.00;4967311;28;124070;-77
2023/09/12 00:03:13;;;;;;;;;;;;;;;24.13;49.34;101200.00;4961488;28;114388;-76
2023/09/12 00:05:40;;;;;;;;;;;;;;;24.14;49.69;101202.56;4971573;28;113945;-77
2023/09/12 00:08:07;;;;;;;;;;;;;;;24.15;49.28;101223.25;4969492;28;125638;-77
2023/09/12 00:10:34;;;;;;;;;;;;;;;24.17;49.64;101232.06;4969836;28;124224;-76
2023/09/12 00:13:02;;;;;;;;;;;;;;;24.16;49.71;101216.81;4970188;28;115665;-76
2023/09/12 00:15:29;;;;;;;;;;;;;;;24.12;49.55;101226.22;4971203;28;114602;-77
2023/09/12 00:17:56;;;;;;;;;;;;;;;24.05;49.56;101246.75;4969219;28;124800;-77
2023/09/12 00:20:24;;;;;;;;;;;;;;;24.00;49.73;101249.91;4970288;28;124149;-77
2023/09/12 00:22:53;;;;;;;;;;;;;;;23.99;49.95;101252.75;4971362;28;114439;-77
2023/09/12 00:25:20;;;;;;;;;;;;;;;23.95;50.00;101240.53;4971102;28;114125;-77
2023/09/12 00:27:47;;;;;;;;;;;;;;;23.90;49.85;101236.44;4969247;28;124166;-77
2023/09/12 00:30:14;;;;;;;;;;;;;;;23.89;49.98;101226.59;4966824;28;123791;-77
2023/09/12 00:32:41;;;;;;;;;;;;;;;23.89;49.93;101223.88;4965603;28;114686;-76
2023/09/12 00:35:08;;;;;;;;;;;;;;;23.91;50.17;101218.34;4966686;28;113716;-77
2023/09/12 00:37:35;;;;;;;;;;;;;;;23.92;50.14;101220.03;4963723;28;122965;-76
2023/09/12 00:40:03;;;;;;;;;;;;;;;23.95;49.94;101219.72;4961916;28;124945;-77
2023/09/12 00:42:30;;;;;;;;;;;;;;;23.96;50.16;101212.47;4967648;28;113906;-77
2023/09/12 00:44:57;;;;;;;;;;;;;;;23.98;49.94;101218.56;4965773;28;113728;-77
2023/09/12 00:47:24;;;;;;;;;;;;;;;23.98;50.04;101213.16;4963813;28;124738;-76
2023/09/12 00:49:53;;;;;;;;;;;;;;;23.98;49.99;101219.44;4951147;28;123362;-77
2023/09/12 00:52:24;;;;;;;;;;;;;;;23.99;50.11;101212.19;4967704;28;114359;-77
2023/09/12 00:54:52;;;;;;;;;;;;;;;24.00;50.18;101206.63;4962209;28;114058;-77
2023/09/12 00:57:20;;;;;;;;;;;;;;;24.00;50.02;101200.38;4969025;28;123841;-77
2023/09/12 00:59:47;;;;;;;;;;;;;;;23.99;50.18;101193.25;4966117;28;124976;-77
2023/09/12 01:02:18;;;;;;;;;;;;;;;23.98;50.09;101191.53;4967961;28;116504;-77
2023/09/12 01:04:46;;;;;;;;;;;;;;;23.97;50.11;101189.84;4969040;28;114299;-77
2023/09/12 01:07:13;;;;;;;;;;;;;;;23.94;50.15;101195.53;4968670;28;123496;-77
2023/09/12 01:09:40;;;;;;;;;;;;;;;23.89;50.15;101183.31;4953638;28;123301;-77
2023/09/12 01:12:08;;;;;;;;;;;;;;;23.85;50.05;101176.47;4969298;28;114072;-77
2023/09/12 01:14:35;;;;;;;;;;;;;;;23.84;50.30;101195.56;4965387;28;112863;-77
2023/09/12 01:17:02;;;;;;;;;;;;;;;23.81;50.20;101188.59;4962919;28;124809;-77
2023/09/12 01:19:29;;;;;;;;;;;;;;;23.76;49.93;101190.84;4964118;28;123804;-76
2023/09/12 01:21:56;;;;;;;;;;;;;;;23.71;50.16;101185.03;4970562;28;113851;-77
2023/09/12 01:24:23;;;;;;;;;;;;;;;23.69;50.24;101184.31;4961846;28;113645;-76
2023/09/12 01:26:54;;;;;;;;;;;;;;;23.66;50.16;101184.63;4957058;28;125076;-77
2023/09/12 01:29:22;;;;;;;;;;;;;;;23.65;50.36;101191.03;4968760;28;124121;-77
2023/09/12 01:31:50;;;;;;;;;;;;;;;23.63;50.19;101193.03;4957333;28;113870;-77
2023/09/12 01:34:19;;;;;;;;;;;;;;;23.60;50.47;101186.06;4978402;28;114384;-77
2023/09/12 01:36:45;;;;;;;;;;;;;;;23.60;50.28;101187.91;4959548;28;125147;-77
2023/09/12 01:39:13;;;;;;;;;;;;;;;23.57;50.45;101189.06;4967879;28;124095;-77
2023/09/12 01:41:42;;;;;;;;;;;;;;;23.57;50.30;101188.22;4968447;28;114696;-77
2023/09/12 01:44:11;;;;;;;;;;;;;;;23.55;50.55;101185.66;4963927;28;115752;-77
2023/09/12 01:46:39;;;;;;;;;;;;;;;23.55;50.45;101182.09;4968124;28;124356;-77
2023/09/12 01:49:07;;;;;;;;;;;;;;;23.54;50.60;101183.09;4966642;28;123018;-77
2023/09/12 01:51:34;;;;;;;;;;;;;;;23.52;50.37;101181.38;4947290;28;116159;-77
2023/09/12 01:54:03;;;;;;;;;;;;;;;23.51;50.50;101179.69;4968468;28;114946;-77
2023/09/12 01:56:30;;;;;;;;;;;;;;;23.49;50.59;101176.28;4965165;28;123214;-77
2023/09/12 01:58:57;;;;;;;;;;;;;;;23.49;50.52;101175.44;4967444;28;124356;-77
2023/09/12 02:01:26;;;;;;;;;;;;;;;23.47;50.67;101167.47;4959898;28;114428;-77
2023/09/12 02:03:54;;;;;;;;;;;;;;;23.47;50.68;101167.47;4965303;28;113810;-77
2023/09/12 02:06:21;;;;;;;;;;;;;;;23.46;50.56;101164.88;4972601;28;123463;-76
2023/09/12 02:08:48;;;;;;;;;;;;;;;23.45;50.49;101164.03;4969411;28;124384;-77
2023/09/12 02:11:15;;;;;;;;;;;;;;;23.43;50.75;101167.88;4969016;28;114651;-77
2023/09/12 02:13:42;;;;;;;;;;;;;;;23.41;50.77;101170.72;4968142;28;114409;-77
2023/09/12 02:16:09;;;;;;;;;;;;;;;23.39;50.67;101175.41;4967312;28;124167;-77
2023/09/12 02:18:36;;;;;;;;;;;;;;;23.38;50.79;101179.13;4965457;28;123393;-77
2023/09/12 02:21:03;;;;;;;;;;;;;;;23.36;50.67;101175.72;4963347;28;114465;-77
2023/09/12 02:23:30;;;;;;;;;;;;;;;23.35;50.90;101178.56;4963766;28;114057;-77
2023/09/12 02:25:57;;;;;;;;;;;;;;;23.31;50.77;101173.44;4965186;28;122674;-77
2023/09/12 02:28:24;;;;;;;;;;;;;;;23.31;50.87;101172.59;4962039;28;124388;-76
2023/09/12 02:30:51;;;;;;;;;;;;;;;23.29;50.92;101190.81;4968968;28;114788;-77
2023/09/12 02:33:18;;;;;;;;;;;;;;;23.27;50.89;101193.66;4964382;28;114086;-76
2023/09/12 02:35:45;;;;;;;;;;;;;;;23.27;50.84;101195.50;4959965;28;125767;-77
2023/09/12 02:38:13;;;;;;;;;;;;;;;23.25;50.83;101200.19;4967170;28;124770;-77
2023/09/12 02:40:40;;;;;;;;;;;;;;;23.22;50.87;101200.47;4964579;28;114958;-77
2023/09/12 02:43:07;;;;;;;;;;;;;;;23.20;50.89;101202.47;4963882;28;113833;-77
2023/09/12 02:45:34;;;;;;;;;;;;;;;23.17;50.99;101209.03;4968775;28;124324;-77
2023/09/12 02:48:01;;;;;;;;;;;;;;;23.17;51.08;101197.34;4960174;28;123801;-77
2023/09/12 02:50:28;;;;;;;;;;;;;;;23.16;51.12;101201.06;4967364;28;114634;-77
2023/09/12 02:52:55;;;;;;;;;;;;;;;23.13;50.96;101196.78;4967453;28;112847;-77
2023/09/12 02:55:22;;;;;;;;;;;;;;;23.11;51.04;101199.66;4965751;28;123969;-77
2023/09/12 02:57:49;;;;;;;;;;;;;;;23.10;50.96;101203.31;4962634;28;124781;-77
2023/09/12 03:00:16;;;;;;;;;;;;;;;23.07;51.00;101205.44;4959723;28;114537;-77
2023/09/12 03:02:43;;;;;;;;;;;;;;;23.05;51.12;101204.75;4969252;28;112926;-77
2023/09/12 03:05:10;;;;;;;;;;;;;;;23.02;51.21;101204.97;4950817;28;123807;-77
2023/09/12 03:07:37;;;;;;;;;;;;;;;23.00;51.04;101202.44;4968626;28;124333;-77
2023/09/12 03:10:05;;;;;;;;;;;;;;;22.99;51.14;101208.84;4960251;28;114678;-77
2023/09/12 03:12:32;;;;;;;;;;;;;;;22.96;51.09;101195.59;4964376;28;112211;-77
2023/09/12 03:15:00;;;;;;;;;;;;;;;22.95;51.20;101199.31;4968362;28;125335;-77
2023/09/12 03:17:28;;;;;;;;;;;;;;;22.94;51.18;101203.00;4968040;28;124135;-77
2023/09/12 03:19:55;;;;;;;;;;;;;;;22.91;51.10;101200.59;4969588;28;113912;-77
2023/09/12 03:22:21;;;;;;;;;;;;;;;22.88;51.08;101198.16;4971015;28;114795;-77
2023/09/12 03:24:48;;;;;;;;;;;;;;;22.84;51.04;101207.53;4964619;28;124341;-76
2023/09/12 03:27:15;;;;;;;;;;;;;;;22.81;51.17;101215.91;4965992;28;124265;-77
2023/09/12 03:29:46;;;;;;;;;;;;;;;22.79;51.34;101209.81;4962758;28;114698;-77
2023/09/12 03:32:13;;;;;;;;;;;;;;;22.79;51.35;101209.81;4964935;28;114631;-77
2023/09/12 03:34:42;;;;;;;;;;;;;;;22.78;51.39;101200.00;4970643;28;118400;-77
2023/09/12 03:37:08;;;;;;;;;;;;;;;22.77;51.33;101195.59;4969707;28;124537;-77
2023/09/12 03:39:35;;;;;;;;;;;;;;;22.74;51.40;101181.38;4963352;28;113436;-77
2023/09/12 03:42:03;;;;;;;;;;;;;;;22.72;51.23;101167.16;4968757;28;114716;-77
2023/09/12 03:44:30;;;;;;;;;;;;;;;22.68;51.40;101159.50;4975031;28;124244;-77
2023/09/12 03:46:57;;;;;;;;;;;;;;;22.66;51.42;101156.94;4961128;28;123229;-77
2023/09/12 03:49:24;;;;;;;;;;;;;;;22.65;51.43;101144.41;4940803;28;113491;-77
2023/09/12 03:51:52;;;;;;;;;;;;;;;22.64;51.60;101148.13;4982391;28;115009;-77
2023/09/12 03:54:19;;;;;;;;;;;;;;;22.63;51.47;101151.81;4969341;28;123294;-77
2023/09/12 03:56:46;;;;;;;;;;;;;;;22.61;51.47;101159.19;4969517;28;123929;-77
2023/09/12 03:59:13;;;;;;;;;;;;;;;22.60;51.52;101157.47;4960806;28;113397;-77
2023/09/12 04:01:40;;;;;;;;;;;;;;;22.60;51.54;101162.03;4966445;28;114239;-77
2023/09/12 04:04:07;;;;;;;;;;;;;;;22.58;51.49;101164.84;4961788;28;123265;-77
2023/09/12 04:06:35;;;;;;;;;;;;;;;22.57;51.53;101163.16;4968462;28;125204;-77
2023/09/12 04:09:02;;;;;;;;;;;;;;;22.56;51.57;101156.03;4966448;28;114181;-77
2023/09/12 04:11:29;;;;;;;;;;;;;;;22.56;51.70;101150.66;4962322;28;114323;-77
2023/09/12 04:14:12;;;;;;;;;;;;;;;22.55;51.63;101154.34;4965249;28;125702;-77
2023/09/12 04:16:39;;;;;;;;;;;;;;;22.53;51.56;101145.53;4968877;28;123950;-77
2023/09/12 04:19:06;;;;;;;;;;;;;;;22.51;51.63;101136.75;4963188;28;116360;-77
2023/09/12 04:21:33;;;;;;;;;;;;;;;22.50;51.50;101148.50;4961868;28;113342;-77
2023/09/12 04:24:00;;;;;;;;;;;;;;;22.49;51.76;101153.06;4966381;28;124578;-77
2023/09/12 04:26:27;;;;;;;;;;;;;;;22.48;51.57;101154.03;4967444;28;123753;-77
2023/09/12 04:28:54;;;;;;;;;;;;;;;22.46;51.67;101160.59;4971128;28;114411;-77
2023/09/12 04:31:22;;;;;;;;;;;;;;;22.44;51.67;101165.28;4969586;28;113150;-77
2023/09/12 04:33:50;;;;;;;;;;;;;;;22.43;51.66;101160.84;4969352;28;123481;-77
2023/09/12 04:36:17;;;;;;;;;;;;;;;22.43;51.75;101155.47;4979909;28;123942;-77
2023/09/12 04:38:44;;;;;;;;;;;;;;;22.43;51.90;101156.31;4969730;28;115130;-77
2023/09/12 04:41:15;;;;;;;;;;;;;;;22.43;51.91;101139.25;4959961;28;113925;-77
2023/09/12 04:43:45;;;;;;;;;;;;;;;22.44;51.87;101157.19;4956890;28;124702;-77
2023/09/12 04:46:12;;;;;;;;;;;;;;;22.44;51.92;101146.38;4937993;28;126048;-77
2023/09/12 04:48:40;;;;;;;;;;;;;;;22.45;51.86;101148.06;4965433;28;114917;-77
2023/09/12 04:51:08;;;;;;;;;;;;;;;22.45;51.90;101148.06;4959468;28;113464;-77
2023/09/12 04:53:35;;;;;;;;;;;;;;;22.46;51.90;101160.59;4966824;28;123821;-78
2023/09/12 04:56:06;;;;;;;;;;;;;;;22.46;51.97;101166.00;4958449;28;123734;-77
2023/09/12 04:58:33;;;;;;;;;;;;;;;22.46;51.97;101172.22;4965216;28;114177;-77
2023/09/12 05:01:00;;;;;;;;;;;;;;;22.47;52.02;101182.06;4971281;28;114402;-77
2023/09/12 05:03:27;;;;;;;;;;;;;;;22.48;52.08;101180.19;4968723;28;125831;-77
2023/09/12 05:05:54;;;;;;;;;;;;;;;22.48;52.15;101180.19;4969786;28;124963;-77
2023/09/12 05:08:21;;;;;;;;;;;;;;;22.49;52.08;101181.88;4967223;28;116727;-77
2023/09/12 05:10:48;;;;;;;;;;;;;;;22.50;52.10;101186.31;4969703;28;114935;-77
2023/09/12 05:13:15;;;;;;;;;;;;;;;22.49;52.15;101188.16;4966093;28;125191;-77
2023/09/12 05:15:44;;;;;;;;;;;;;;;22.48;52.07;101185.59;4968092;28;125136;-77
2023/09/12 05:18:11;;;;;;;;;;;;;;;22.48;52.07;101185.59;4969021;28;114206;-77
2023/09/12 05:20:38;;;;;;;;;;;;;;;22.50;52.19;101189.00;4963303;28;113558;-77
2023/09/12 05:23:05;;;;;;;;;;;;;;;22.51;52.11;101190.72;4963864;28;124398;-77
2023/09/12 05:25:32;;;;;;;;;;;;;;;22.51;52.12;101190.72;4959394;28;123176;-77
2023/09/12 05:27:59;;;;;;;;;;;;;;;22.51;52.09;101185.31;4954920;28;115804;-77
2023/09/12 05:30:27;;;;;;;;;;;;;;;22.50;52.10;101183.59;4950527;28;112916;-77
2023/09/12 05:32:54;;;;;;;;;;;;;;;22.48;52.06;101181.03;4965718;28;124360;-77
2023/09/12 05:35:21;;;;;;;;;;;;;;;22.48;52.25;101174.78;4968915;28;124553;-77
2023/09/12 05:37:50;;;;;;;;;;;;;;;22.47;52.18;101182.06;4971938;28;112622;-77
2023/09/12 05:40:18;;;;;;;;;;;;;;;22.47;52.23;101191.97;4971825;28;114979;-77
2023/09/12 05:42:45;;;;;;;;;;;;;;;22.48;52.22;101193.69;4989821;28;125222;-77
2023/09/12 05:45:13;;;;;;;;;;;;;;;22.47;52.35;101189.28;4974006;28;123334;-77
2023/09/12 05:47:40;;;;;;;;;;;;;;;22.47;52.41;101194.66;4965642;28;116316;-77
2023/09/12 05:50:07;;;;;;;;;;;;;;;22.46;52.33;101203.78;4969265;28;113468;-77
2023/09/12 05:52:34;;;;;;;;;;;;;;;22.49;52.31;101192.69;4968256;28;124238;-77
2023/09/12 05:55:01;;;;;;;;;;;;;;;22.49;52.32;101192.69;4952517;28;123369;-77
2023/09/12 05:57:29;;;;;;;;;;;;;;;22.51;52.47;101201.53;4961991;28;114901;-77
2023/09/12 05:59:56;;;;;;;;;;;;;;;22.51;52.47;101202.38;4967365;28;114630;-77
2023/09/12 06:02:23;;;;;;;;;;;;;;;22.52;52.43;101204.06;4964794;28;125133;-77
2023/09/12 06:04:50;;;;;;;;;;;;;;;22.54;52.54;101206.63;4964404;28;123849;-77
2023/09/12 06:07:17;;;;;;;;;;;;;;;22.57;52.50;101206.38;4967542;28;114439;-77
2023/09/12 06:09:44;;;;;;;;;;;;;;;22.59;52.41;101209.78;4967645;28;113768;-77
2023/09/12 06:12:11;;;;;;;;;;;;;;;22.62;52.47;101203.22;4967021;28;122982;-77
2023/09/12 06:14:38;;;;;;;;;;;;;;;22.63;52.37;101213.91;4969953;28;124558;-77
2023/09/12 06:17:06;;;;;;;;;;;;;;;22.64;52.47;101215.63;4966719;28;114501;-77
2023/09/12 06:19:35;;;;;;;;;;;;;;;22.64;52.41;101202.13;4952304;28;114670;-77
2023/09/12 06:22:02;;;;;;;;;;;;;;;22.65;52.25;101198.41;4968937;28;125150;-77
2023/09/12 06:24:29;;;;;;;;;;;;;;;22.65;52.53;101192.16;4966162;28;124141;-79
2023/09/12 06:26:57;;;;;;;;;;;;;;;22.64;52.60;101195.84;4962383;28;114902;-77
2023/09/12 06:29:24;;;;;;;;;;;;;;;22.63;52.46;101195.00;4967209;28;114625;-76
2023/09/12 06:31:51;;;;;;;;;;;;;;;22.64;52.52;101187.75;4961876;28;124300;-77
2023/09/12 06:34:18;;;;;;;;;;;;;;;22.67;52.60;101180.22;4962337;28;124313;-77
2023/09/12 06:36:45;;;;;;;;;;;;;;;22.68;52.58;101198.16;4971061;28;114446;-77
2023/09/12 06:39:12;;;;;;;;;;;;;;;22.70;52.57;101196.16;4964380;28;113751;-77
2023/09/12 06:41:39;;;;;;;;;;;;;;;22.73;52.75;101193.19;4958540;28;125332;-77
2023/09/12 06:44:07;;;;;;;;;;;;;;;22.77;52.69;101190.19;4958872;28;125176;-77
2023/09/12 06:46:37;;;;;;;;;;;;;;;22.79;52.67;101199.00;4957228;28;115687;-77
2023/09/12 06:49:05;;;;;;;;;;;;;;;22.81;52.77;101202.41;4956590;28;115202;-78
2023/09/12 06:51:32;;;;;;;;;;;;;;;22.84;52.88;101212.94;4957990;28;124995;-77
2023/09/12 06:54:03;;;;;;;;;;;;;;;22.87;52.71;101218.06;4957731;28;124892;-77
2023/09/12 06:56:30;;;;;;;;;;;;;;;22.91;52.81;101224.91;4957261;28;114519;-77
2023/09/12 06:58:59;;;;;;;;;;;;;;;22.94;52.94;101219.19;4964168;28;113044;-77
2023/09/12 07:01:26;;;;;;;;;;;;;;;22.96;52.66;101217.22;4967288;28;125033;-77
2023/09/12 07:03:54;;;;;;;;;;;;;;;22.96;52.44;101217.22;4966269;28;124117;-77
2023/09/12 07:06:22;;;;;;;;;;;;;;;22.93;52.71;101222.91;4967245;28;114810;-77
2023/09/12 07:08:49;;;;;;;;;;;;;;;22.91;52.76;101230.31;4965827;28;114234;-77
2023/09/12 07:11:16;;;;;;;;;;;;;;;22.89;52.81;101226.88;4961039;28;125063;-76
2023/09/12 07:13:43;;;;;;;;;;;;;;;22.88;52.92;101230.56;4959750;28;123366;-76
2023/09/12 07:16:11;;;;;;;;;;;;;;;22.89;52.85;101240.41;4965802;28;114473;-76
2023/09/12 07:18:38;;;;;;;;;;;;;;;22.92;52.93;101242.81;4961753;28;113815;-76
2023/09/12 07:21:06;;;;;;;;;;;;;;;22.97;52.97;101239.69;4964043;28;124907;-76
2023/09/12 07:23:33;;;;;;;;;;;;;;;23.01;53.05;101236.56;4968687;28;123311;-77
2023/09/12 07:26:02;;;;;;;;;;;;;;;23.04;52.88;101230.91;4963142;28;115269;-77
2023/09/12 07:28:30;;;;;;;;;;;;;;;23.05;53.02;101229.91;4944517;28;114057;-76
2023/09/12 07:30:58;;;;;;;;;;;;;;;23.08;53.30;101232.34;4952279;28;123655;-76
2023/09/12 07:33:25;;;;;;;;;;;;;;;23.15;53.20;101231.75;4948772;28;125765;-77
2023/09/12 07:35:52;;;;;;;;;;;;;;;23.21;53.16;101236.63;4934704;28;114521;-76
2023/09/12 07:38:20;;;;;;;;;;;;;;;23.28;53.27;101238.63;4948587;28;114973;-77
2023/09/12 07:40:47;;;;;;;;;;;;;;;23.36;53.37;101228.91;4961411;28;124386;-77
2023/09/12 07:43:14;;;;;;;;;;;;;;;23.43;53.24;101222.81;4967112;28;123445;-76
2023/09/12 07:45:41;;;;;;;;;;;;;;;23.49;53.43;101230.34;4961698;28;114162;-77
2023/09/12 07:48:11;;;;;;;;;;;;;;;23.57;53.18;101220.66;4966880;28;114046;-77
2023/09/12 07:50:38;;;;;;;;;;;;;;;23.63;53.25;101234.44;4964194;28;125829;-77
2023/09/12 07:53:05;;;;;;;;;;;;;;;23.68;53.23;101225.91;4946581;28;125074;-77
2023/09/12 07:55:48;;;;;;;;;;;;;;;23.74;53.34;101219.91;4958487;28;114652;-78
2023/09/12 07:58:24;;;;;;;;;;;;;;;23.81;53.45;101218.38;4964815;28;113911;-77
2023/09/12 08:00:51;;;;;;;;;;;;;;;23.90;53.35;101228.31;4960916;28;124310;-77
2023/09/12 08:03:18;;;;;;;;;;;;;;;24.02;53.52;101230.84;4966249;28;124754;-78
2023/09/12 08:05:53;;;;;;;;;;;;;;;24.11;53.51;101240.78;4967496;28;113780;-78
2023/09/12 08:08:21;;;;;;;;;;;;;;;24.23;53.39;101239.56;4966034;28;113919;-77
2023/09/12 08:10:48;;;;;;;;;;;;;;;24.35;53.62;101237.53;4963093;28;125183;-78
2023/09/12 08:13:15;;;;;;;;;;;;;;;24.48;53.48;101226.34;4969720;28;124432;-77
2023/09/12 08:15:42;;;;;;;;;;;;;;;24.60;53.42;101217.06;4961793;28;114341;-76
2023/09/12 08:18:10;;;;;;;;;;;;;;;24.71;53.61;101221.41;4966427;28;114352;-77
2023/09/12 08:20:37;;;;;;;;;;;;;;;24.82;53.39;101217.63;4968021;28;124375;-77
2023/09/12 08:23:04;;;;;;;;;;;;;;;24.96;53.41;101211.69;4968414;28;122754;-77
2023/09/12 08:25:31;;;;;;;;;;;;;;;25.09;53.43;101218.56;4967013;28;114373;-77
2023/09/12 08:27:58;;;;;;;;;;;;;;;25.21;53.67;101218.19;4970639;28;114683;-77
2023/09/12 08:30:25;;;;;;;;;;;;;;;25.33;53.52;101218.81;4965649;28;124816;-77
2023/09/12 08:32:52;;;;;;;;;;;;;;;25.44;53.22;101232.13;4967019;28;123574;-77
2023/09/12 08:35:19;;;;;;;;;;;;;;;25.55;53.19;101231.03;4965329;28;114649;-77
2023/09/12 08:37:46;;;;;;;;;;;;;;;25.66;53.66;101232.66;4963979;28;113637;-77
2023/09/12 08:40:13;;;;;;;;;;;;;;;25.77;53.43;101229.66;4968831;28;124887;-77
2023/09/12 08:42:41;;;;;;;;;;;;;;;25.89;53.19;101237.56;4965292;28;124102;-77
2023/09/12 08:45:15;;;;;;;;;;;;;;;25.99;52.97;101243.75;4961636;28;114592;-77
2023/09/12 08:47:49;;;;;;;;;;;;;;;26.10;53.34;101240.75;4960127;28;113549;-77
2023/09/12 08:50:17;;;;;;;;;;;;;;;26.20;52.98;101243.34;4944851;28;122412;-77
2023/09/12 08:52:45;;;;;;;;;;;;;;;26.25;53.20;101254.56;4959808;28;123829;-78
2023/09/12 08:55:33;;;;;;;;;;;;;;;26.28;52.99;101264.28;4966868;28;113608;-77
2023/09/12 08:58:02;;;;;;;;;;;;;;;26.31;52.90;101269.38;4963003;28;112986;-77
2023/09/12 09:00:29;;;;;;;;;;;;;;;26.32;52.98;101271.09;4963920;28;124496;-77
2023/09/12 09:02:56;;;;;;;;;;;;;;;26.34;53.01;101279.91;4962504;28;124158;-77
2023/09/12 09:05:24;;;;;;;;;;;;;;;26.34;52.74;101279.91;4957526;28;114319;-77
2023/09/12 09:07:51;;;;;;;;;;;;;;;26.31;52.51;101274.81;4968493;28;115081;-76
2023/09/12 09:10:20;;;;;;;;;;;;;;;26.28;52.81;101269.72;4963917;28;124253;-77
2023/09/12 09:13:06;;;;;;;;;;;;;;;26.28;52.83;101280.56;4964802;28;123890;-77
2023/09/12 09:15:33;;;;;;;;;;;;;;;26.33;52.92;101283.63;4963463;28;115127;-76
2023/09/12 09:18:02;;;;;;;;;;;;;;;26.37;52.87;101285.00;4969521;28;114798;-77
2023/09/12 09:20:30;;;;;;;;;;;;;;;26.42;52.88;101285.38;4959209;28;124401;-76
2023/09/12 09:22:57;;;;;;;;;;;;;;;26.46;52.92;101283.19;4957920;28;124529;-76
2023/09/12 09:25:24;;;;;;;;;;;;;;;26.50;52.65;101295.44;4948719;28;116156;-80
2023/09/12 09:27:51;;;;;;;;;;;;;;;26.54;52.54;101286.81;4948667;28;114407;-78
2023/09/12 09:30:38;;;;;;;;;;;;;;;26.55;52.76;101288.50;4949422;28;123618;-79
2023/09/12 09:33:05;;;;;;;;;;;;;;;26.57;52.50;101280.19;4949985;28;124088;-78
2023/09/12 09:35:32;;;;;;;;;;;;;;;26.61;52.81;101282.44;4950482;28;113844;-77
2023/09/12 09:37:59;;;;;;;;;;;;;;;26.69;52.99;101278.06;4948603;28;112914;-77
2023/09/12 09:40:26;;;;;;;;;;;;;;;26.75;52.91;101271.97;4963083;28;124900;-77
2023/09/12 09:42:59;;;;;;;;;;;;;;;26.82;52.54;101256.69;4949412;28;122999;-77
2023/09/12 09:45:27;;;;;;;;;;;;;;;26.88;52.82;101256.06;4962792;28;114333;-77
2023/09/12 09:47:56;;;;;;;;;;;;;;;26.95;52.77;101256.22;4958495;28;114257;-77
2023/09/12 09:50:23;;;;;;;;;;;;;;;27.03;52.56;101247.22;4958487;28;124567;-76
2023/09/12 09:52:57;;;;;;;;;;;;;;;27.10;52.53;101253.69;4967803;28;124409;-76
2023/09/12 09:55:24;;;;;;;;;;;;;;;27.18;52.40;101259.16;4962786;28;114128;-77
2023/09/12 09:57:52;;;;;;;;;;;;;;;27.24;52.66;101260.34;4964993;28;113638;-77
2023/09/12 10:00:22;;;;;;;;;;;;;;;27.32;52.63;101252.25;4957856;28;124832;-76
2023/09/12 10:02:51;;;;;;;;;;;;;;;27.42;52.75;101257.50;4960020;28;123533;-77
2023/09/12 10:05:18;;;;;;;;;;;;;;;27.51;52.53;101256.50;4961588;28;115492;-79
2023/09/12 10:07:48;;;;;;;;;;;;;;;27.59;52.66;101253.75;4966356;28;114967;-77
2023/09/12 10:10:16;;;;;;;;;;;;;;;27.68;52.47;101263.63;4965772;28;123693;-77
2023/09/12 10:12:55;;;;;;;;;;;;;;;27.76;52.29;101255.47;4964920;28;123992;-77
2023/09/12 10:15:22;;;;;;;;;;;;;;;27.83;52.32;101249.31;4963381;28;114506;-76
2023/09/12 10:17:57;;;;;;;;;;;;;;;27.88;52.28;101258.66;4967299;28;113141;-77
2023/09/12 10:20:25;;;;;;;;;;;;;;;27.95;52.29;101253.41;4960007;28;125535;-77
2023/09/12 10:23:00;;;;;;;;;;;;;;;28.00;52.19;101256.47;4960033;28;124806;-77
2023/09/12 10:25:28;;;;;;;;;;;;;;;28.07;52.32;101252.03;4962707;28;114720;-77
2023/09/12 10:27:56;;;;;;;;;;;;;;;28.11;52.13;101250.66;4960960;28;113157;-77
2023/09/12 10:30:24;;;;;;;;;;;;;;;28.19;52.11;101248.94;4959159;28;124333;-77
2023/09/12 10:32:52;;;;;;;;;;;;;;;28.26;52.19;101255.38;4956996;28;124715;-76
2023/09/12 10:35:19;;;;;;;;;;;;;;;28.34;52.02;101247.16;4966326;28;114652;-79
2023/09/12 10:37:48;;;;;;;;;;;;;;;28.42;51.92;101244.41;4961455;28;113827;-77
2023/09/12 10:40:16;;;;;;;;;;;;;;;28.42;51.65;101244.41;4958704;28;124360;-77
2023/09/12 10:42:44;;;;;;;;;;;;;;;28.44;51.87;101242.34;4948680;28;123178;-77
2023/09/12 10:45:11;;;;;;;;;;;;;;;28.53;52.11;101241.31;4961803;28;114718;-77
2023/09/12 10:47:38;;;;;;;;;;;;;;;28.64;52.00;101241.97;4967874;28;113713;-76
2023/09/12 10:50:06;;;;;;;;;;;;;;;28.71;51.82;101240.22;4961798;28;124590;-77
2023/09/12 10:52:35;;;;;;;;;;;;;;;28.79;51.57;101240.16;4968898;28;124000;-76
2023/09/12 10:55:04;;;;;;;;;;;;;;;28.84;51.64;101237.75;4963009;28;115876;-77
2023/09/12 10:57:31;;;;;;;;;;;;;;;28.87;51.52;101237.38;4975204;28;115384;-77
2023/09/12 11:00:04;;;;;;;;;;;;;;;28.92;51.85;101226.78;4963665;28;124856;-77
2023/09/12 11:02:32;;;;;;;;;;;;;;;28.97;51.50;101219.94;4971314;28;123177;-76
2023/09/12 11:04:59;;;;;;;;;;;;;;;29.00;51.34;101220.44;4966176;28;115313;-77
2023/09/12 11:07:35;;;;;;;;;;;;;;;29.06;51.27;101227.03;4962207;28;113189;-76
2023/09/12 11:10:15;;;;;;;;;;;;;;;29.12;51.15;101223.56;4956695;28;124097;-77
2023/09/12 11:12:43;;;;;;;;;;;;;;;29.16;51.28;101230.41;4962664;28;124471;-77
2023/09/12 11:15:10;;;;;;;;;;;;;;;29.21;51.30;101222.50;4954837;28;114288;-77
2023/09/12 11:17:38;;;;;;;;;;;;;;;29.27;51.29;101232.72;4970316;28;112516;-76
2023/09/12 11:20:11;;;;;;;;;;;;;;;29.28;51.15;101223.50;4959292;28;124071;-77
2023/09/12 11:22:40;;;;;;;;;;;;;;;29.30;51.17;101229.59;4962595;28;123962;-76
2023/09/12 11:25:16;;;;;;;;;;;;;;;29.33;51.04;101224.81;4962280;28;114411;-76
2023/09/12 11:27:52;;;;;;;;;;;;;;;29.38;50.94;101227.84;4961230;28;114500;-76
2023/09/12 11:30:23;;;;;;;;;;;;;;;29.42;50.93;101219.13;4968629;28;124451;-76
2023/09/12 11:32:51;;;;;;;;;;;;;;;29.44;50.92;101216.19;4964078;28;123228;-76
2023/09/12 11:35:22;;;;;;;;;;;;;;;29.47;50.82;101226.75;4961495;28;114139;-76
2023/09/12 11:37:50;;;;;;;;;;;;;;;29.49;50.92;101220.06;4949891;28;113575;-76
2023/09/12 11:40:22;;;;;;;;;;;;;;;29.51;50.74;101217.16;4960309;28;124247;-76
2023/09/12 11:42:52;;;;;;;;;;;;;;;29.56;50.85;101222.91;4962252;28;124273;-76
2023/09/12 11:45:20;;;;;;;;;;;;;;;29.62;50.62;101219.44;4962693;28;115654;-76
2023/09/12 11:47:48;;;;;;;;;;;;;;;29.65;50.68;101230.00;4969198;28;115132;-76
2023/09/12 11:50:31;;;;;;;;;;;;;;;29.63;50.66;101221.16;4963251;28;125037;-76
2023/09/12 11:53:03;;;;;;;;;;;;;;;29.58;50.55;101223.56;4958855;28;124211;-76
2023/09/12 11:55:31;;;;;;;;;;;;;;;29.57;50.53;101227.31;4966878;28;115007;-76
2023/09/12 11:57:58;;;;;;;;;;;;;;;29.51;50.61;101222.59;4970851;28;114908;-76
2023/09/12 12:00:26;;;;;;;;;;;;;;;29.50;50.47;101226.38;4963131;28;124835;-76
2023/09/12 12:02:54;;;;;;;;;;;;;;;29.50;50.49;101227.22;4968695;28;123870;-76
2023/09/12 12:05:22;;;;;;;;;;;;;;;29.52;50.52;101235.25;4966809;28;113357;-76
2023/09/12 12:07:49;;;;;;;;;;;;;;;29.55;50.54;101234.00;4968254;28;113945;-76
2023/09/12 12:10:17;;;;;;;;;;;;;;;29.55;50.58;101223.94;4961303;28;124650;-76
2023/09/12 12:12:46;;;;;;;;;;;;;;;29.60;50.57;101226.13;4960759;28;124074;-76
2023/09/12 12:15:13;;;;;;;;;;;;;;;29.63;50.28;101226.59;4964059;28;114215;-76
2023/09/12 12:17:41;;;;;;;;;;;;;;;29.66;50.50;101223.47;4959375;28;114528;-76
2023/09/12 12:20:11;;;;;;;;;;;;;;;29.69;50.40;101225.84;4959054;28;124196;-76
2023/09/12 12:22:38;;;;;;;;;;;;;;;29.69;50.24;101228.59;4965371;28;123790;-76
2023/09/12 12:25:07;;;;;;;;;;;;;;;29.69;50.30;101225.84;4960942;28;114779;-76
2023/09/12 12:27:38;;;;;;;;;;;;;;;29.69;50.22;101225.84;4965657;28;113100;-76
2023/09/12 12:30:14;;;;;;;;;;;;;;;29.67;50.14;101218.91;4963737;28;124160;-76
2023/09/12 12:32:42;;;;;;;;;;;;;;;29.62;50.14;101224.88;4948354;28;123625;-76